createdAt,value
2024-05-09T00:04:25.693Z,92.7
2024-05-09T00:16:25.587Z,93.2
2024-05-09T00:28:25.587Z,93.3
2024-05-09T00:40:31.247Z,94.2
2024-05-09T00:52:25.459Z,94.7
2024-05-09T01:04:25.538Z,96.3
2024-05-09T01:16:25.548Z,97.4
2024-05-09T01:28:25.449Z,99.2
2024-05-09T01:40:35.420Z,99.7
2024-05-09T01:52:25.498Z,99.5
2024-05-09T02:04:25.799Z,100.0
2024-05-09T02:16:25.474Z,100.0
2024-05-09T02:28:25.454Z,100.0
2024-05-09T02:40:33.738Z,100.0
2024-05-09T02:52:25.446Z,100.0
2024-05-09T03:04:25.521Z,100.0
2024-05-09T03:16:25.573Z,100.0
2024-05-09T03:28:25.505Z,100.0
2024-05-09T03:40:28.967Z,100.0
2024-05-09T03:52:25.459Z,100.0
2024-05-09T04:04:25.533Z,100.0
2024-05-09T04:16:25.446Z,100.0
2024-05-09T04:28:25.454Z,100.0
2024-05-09T04:40:32.871Z,100.0
2024-05-09T04:52:25.452Z,100.0
2024-05-09T05:04:25.508Z,100.0
2024-05-09T05:16:25.451Z,100.0
2024-05-09T05:28:25.449Z,100.0
2024-05-09T05:40:33.098Z,100.0
2024-05-09T05:52:25.457Z,100.0
2024-05-09T06:04:25.553Z,100.0
2024-05-09T06:16:25.454Z,100.0
2024-05-09T06:28:25.465Z,100.0
2024-05-09T06:40:30.030Z,100.0
2024-05-09T06:52:25.450Z,100.0
2024-05-09T07:04:25.677Z,100.0
2024-05-09T07:16:25.473Z,100.0
2024-05-09T07:28:25.469Z,96.2
2024-05-09T07:40:32.991Z,92.4
2024-05-09T08:04:26.671Z,81.4
2024-05-09T08:16:25.549Z,75.2
2024-05-09T08:28:25.522Z,66.1
2024-05-09T08:40:32.944Z,60.9
2024-05-09T08:52:26.562Z,53.5
2024-05-09T09:04:25.567Z,51.0
2024-05-09T09:16:25.609Z,53.5
2024-05-09T09:28:25.474Z,53.5
2024-05-09T09:52:25.554Z,49.1
2024-05-09T10:04:25.706Z,48.4
2024-05-09T10:16:25.640Z,43.4
2024-05-09T10:28:25.453Z,40.9
2024-05-09T10:40:31.045Z,39.9
2024-05-09T10:52:25.500Z,38.2
2024-05-09T11:04:25.572Z,36.5
2024-05-09T11:16:25.507Z,35.3
2024-05-09T11:28:25.501Z,36.1
2024-05-09T11:40:32.020Z,37.5
2024-05-09T11:52:25.540Z,38.4
2024-05-09T12:04:25.635Z,35.3
2024-05-09T12:16:25.672Z,33.9
2024-05-09T12:28:25.501Z,34.6
2024-05-09T12:40:33.442Z,35.1
2024-05-09T12:52:25.455Z,34.6
2024-05-09T13:04:26.664Z,31.1
2024-05-09T13:16:25.644Z,32.5
2024-05-09T13:28:25.674Z,30.9
2024-05-09T13:40:32.666Z,33.0
2024-05-09T13:52:25.502Z,36.0
2024-05-09T14:04:25.714Z,36.2
2024-05-09T14:16:25.618Z,32.4
2024-05-09T14:28:25.536Z,31.6
2024-05-09T14:40:36.246Z,31.9
2024-05-09T14:52:25.443Z,32.4
2024-05-09T15:04:25.669Z,33.1
2024-05-09T15:16:25.638Z,34.7
2024-05-09T15:28:25.609Z,37.3
2024-05-09T15:40:34.994Z,36.7
2024-05-09T15:52:25.450Z,36.4
2024-05-09T16:04:25.649Z,36.2
2024-05-09T16:16:25.579Z,40.1
2024-05-09T16:28:27.083Z,36.8
2024-05-09T16:40:34.414Z,38.0
2024-05-09T16:52:25.489Z,36.1
2024-05-09T17:04:25.560Z,38.3
2024-05-09T17:16:25.558Z,39.3
2024-05-09T17:28:25.515Z,42.4
2024-05-09T17:40:31.529Z,43.2
2024-05-09T17:52:25.499Z,45.4
2024-05-09T18:04:25.601Z,44.9
2024-05-09T18:16:25.614Z,47.4
2024-05-09T18:28:25.666Z,47.9
2024-05-09T18:40:32.398Z,49.7
2024-05-09T18:52:25.454Z,50.8
2024-05-09T19:04:25.716Z,53.1
2024-05-09T19:16:25.521Z,54.4
2024-05-09T19:28:25.697Z,55.5
2024-05-09T19:40:31.101Z,56.6
2024-05-09T19:52:25.571Z,57.1
2024-05-09T20:04:25.702Z,57.6
2024-05-09T20:16:25.552Z,60.8
2024-05-09T20:28:25.776Z,61.3
2024-05-09T20:40:31.649Z,62.1
2024-05-09T20:52:25.567Z,62.7
2024-05-09T21:04:25.660Z,64.2
2024-05-09T21:16:25.671Z,66.4
2024-05-09T21:28:25.713Z,67.8
2024-05-09T21:40:31.674Z,68.2
2024-05-09T21:52:25.577Z,67.3
2024-05-09T22:04:25.645Z,66.9
2024-05-09T22:16:25.717Z,71.3
2024-05-09T22:28:25.494Z,74.1
2024-05-09T22:40:37.893Z,73.2
2024-05-09T22:52:25.461Z,74.7
2024-05-09T23:04:25.614Z,75.3
2024-05-09T23:16:25.687Z,78.5
2024-05-09T23:28:25.756Z,80.1
2024-05-09T23:40:35.011Z,82.1
2024-05-09T23:52:25.610Z,81.3
